sensor_id;sensor_type;location;lat;lon;timestamp;pressure;altitude;pressure_sealevel;temperature;humidity
49102;BME280;34913;47.520;19.186;2023-05-22T00:01:10;99838.66;;;16.57;81.00
49102;BME280;34913;47.520;19.186;2023-05-22T00:03:36;99834.31;;;16.56;82.72
49102;BME280;34913;47.520;19.186;2023-05-22T00:06:02;99834.97;;;16.50;83.18
49102;BME280;34913;47.520;19.186;2023-05-22T00:08:27;99837.34;;;16.44;84.20
49102;BME280;34913;47.520;19.186;2023-05-22T00:10:54;99825.91;;;16.59;84.48
49102;BME280;34913;47.520;19.186;2023-05-22T00:13:19;99827.78;;;16.42;85.50
49102;BME280;34913;47.520;19.186;2023-05-22T00:15:45;99832.81;;;16.29;85.59
49102;BME280;34913;47.520;19.186;2023-05-22T00:18:11;99830.28;;;16.27;84.87
49102;BME280;34913;47.520;19.186;2023-05-22T00:20:38;99831.97;;;16.36;83.76
49102;BME280;34913;47.520;19.186;2023-05-22T00:23:05;99827.94;;;16.32;83.09
49102;BME280;34913;47.520;19.186;2023-05-22T00:25:34;99824.25;;;16.33;84.46
49102;BME280;34913;47.520;19.186;2023-05-22T00:28:00;99830.63;;;16.32;85.09
49102;BME280;34913;47.520;19.186;2023-05-22T00:30:26;99826.94;;;16.33;84.17
49102;BME280;34913;47.520;19.186;2023-05-22T00:32:51;99836.00;;;16.32;84.11
49102;BME280;34913;47.520;19.186;2023-05-22T00:35:17;99835.31;;;16.30;84.49
49102;BME280;34913;47.520;19.186;2023-05-22T00:37:42;99831.16;;;16.36;84.00
49102;BME280;34913;47.520;19.186;2023-05-22T00:40:12;99832.66;;;16.30;83.74
49102;BME280;34913;47.520;19.186;2023-05-22T00:42:38;99841.88;;;16.28;83.84
49102;BME280;34913;47.520;19.186;2023-05-22T00:45:04;99839.31;;;16.26;83.29
49102;BME280;34913;47.520;19.186;2023-05-22T00:47:30;99838.66;;;16.16;83.84
49102;BME280;34913;47.520;19.186;2023-05-22T00:49:57;99838.84;;;16.14;84.34
49102;BME280;34913;47.520;19.186;2023-05-22T00:52:22;99842.84;;;16.10;84.64
49102;BME280;34913;47.520;19.186;2023-05-22T00:54:49;99840.50;;;16.15;84.74
49102;BME280;34913;47.520;19.186;2023-05-22T00:57:16;99835.97;;;16.08;85.14
49102;BME280;34913;47.520;19.186;2023-05-22T00:59:42;99831.28;;;16.10;85.81
49102;BME280;34913;47.520;19.186;2023-05-22T01:02:08;99824.44;;;15.99;85.45
49102;BME280;34913;47.520;19.186;2023-05-22T01:04:34;99826.94;;;16.01;84.85
49102;BME280;34913;47.520;19.186;2023-05-22T01:07:01;99835.97;;;16.00;84.72
49102;BME280;34913;47.520;19.186;2023-05-22T01:09:28;99833.47;;;15.98;84.69
49102;BME280;34913;47.520;19.186;2023-05-22T01:12:09;99829.78;;;15.91;84.23
49102;BME280;34913;47.520;19.186;2023-05-22T01:17:41;99823.41;;;15.92;82.78
49102;BME280;34913;47.520;19.186;2023-05-22T01:25:30;99831.63;;;15.99;80.76
49102;BME280;34913;47.520;19.186;2023-05-22T01:31:05;99827.91;;;15.83;79.74
49102;BME280;34913;47.520;19.186;2023-05-22T01:33:40;99829.41;;;15.78;79.47
49102;BME280;34913;47.520;19.186;2023-05-22T01:36:07;99819.53;;;15.78;80.07
49102;BME280;34913;47.520;19.186;2023-05-22T01:38:34;99826.91;;;15.76;79.85
49102;BME280;34913;47.520;19.186;2023-05-22T01:41:00;99823.88;;;15.79;79.36
49102;BME280;34913;47.520;19.186;2023-05-22T01:43:25;99821.72;;;15.83;78.54
49102;BME280;34913;47.520;19.186;2023-05-22T01:45:51;99823.56;;;15.82;79.45
49102;BME280;34913;47.520;19.186;2023-05-22T01:48:17;99810.50;;;15.79;77.78
49102;BME280;34913;47.520;19.186;2023-05-22T01:50:43;99815.19;;;15.77;77.58
49102;BME280;34913;47.520;19.186;2023-05-22T01:53:21;99805.31;;;15.78;77.51
49102;BME280;34913;47.520;19.186;2023-05-22T01:55:52;99798.81;;;15.80;76.18
49102;BME280;34913;47.520;19.186;2023-05-22T02:01:18;99803.00;;;15.83;76.12
49102;BME280;34913;47.520;19.186;2023-05-22T02:03:44;99809.53;;;15.88;73.46
49102;BME280;34913;47.520;19.186;2023-05-22T02:06:12;99808.69;;;15.88;74.07
49102;BME280;34913;47.520;19.186;2023-05-22T02:08:40;99808.00;;;15.86;75.38
49102;BME280;34913;47.520;19.186;2023-05-22T02:11:08;99800.97;;;15.69;77.06
49102;BME280;34913;47.520;19.186;2023-05-22T02:13:34;99803.56;;;15.52;78.02
49102;BME280;34913;47.520;19.186;2023-05-22T02:16:00;99805.19;;;15.37;78.22
49102;BME280;34913;47.520;19.186;2023-05-22T02:18:26;99796.31;;;15.28;78.27
49102;BME280;34913;47.520;19.186;2023-05-22T02:20:59;99801.00;;;15.26;79.46
49102;BME280;34913;47.520;19.186;2023-05-22T02:23:27;99807.84;;;15.29;79.47
49102;BME280;34913;47.520;19.186;2023-05-22T02:25:56;99799.66;;;15.30;79.33
49102;BME280;34913;47.520;19.186;2023-05-22T02:28:23;99804.13;;;15.22;79.77
49102;BME280;34913;47.520;19.186;2023-05-22T02:30:48;99802.28;;;15.22;79.79
49102;BME280;34913;47.520;19.186;2023-05-22T02:33:14;99804.47;;;15.19;80.16
49102;BME280;34913;47.520;19.186;2023-05-22T02:35:42;99811.13;;;15.15;81.51
49102;BME280;34913;47.520;19.186;2023-05-22T02:38:07;99794.72;;;15.01;81.94
49102;BME280;34913;47.520;19.186;2023-05-22T02:40:33;99798.66;;;14.89;82.36
49102;BME280;34913;47.520;19.186;2023-05-22T02:42:58;99798.13;;;14.86;82.79
49102;BME280;34913;47.520;19.186;2023-05-22T02:45:24;99802.78;;;14.84;83.14
49102;BME280;34913;47.520;19.186;2023-05-22T02:47:49;99803.63;;;14.84;83.83
49102;BME280;34913;47.520;19.186;2023-05-22T02:50:15;99793.13;;;14.91;83.33
49102;BME280;34913;47.520;19.186;2023-05-22T02:52:41;99798.28;;;14.84;83.49
49102;BME280;34913;47.520;19.186;2023-05-22T02:55:07;99793.03;;;14.74;83.84
49102;BME280;34913;47.520;19.186;2023-05-22T02:57:34;99790.88;;;14.70;84.32
49102;BME280;34913;47.520;19.186;2023-05-22T02:59:59;99794.84;;;14.66;84.53
49102;BME280;34913;47.520;19.186;2023-05-22T03:02:25;99792.50;;;14.63;84.71
49102;BME280;34913;47.520;19.186;2023-05-22T03:04:56;99795.47;;;14.60;85.35
49102;BME280;34913;47.520;19.186;2023-05-22T03:07:23;99791.78;;;14.61;84.64
49102;BME280;34913;47.520;19.186;2023-05-22T03:09:51;99788.59;;;14.57;84.73
49102;BME280;34913;47.520;19.186;2023-05-22T03:12:16;99796.94;;;14.54;84.75
49102;BME280;34913;47.520;19.186;2023-05-22T03:14:42;99792.56;;;14.53;85.20
49102;BME280;34913;47.520;19.186;2023-05-22T03:17:07;99792.28;;;14.56;85.04
49102;BME280;34913;47.520;19.186;2023-05-22T03:19:32;99793.06;;;14.48;85.33
49102;BME280;34913;47.520;19.186;2023-05-22T03:21:58;99791.81;;;14.43;84.93
49102;BME280;34913;47.520;19.186;2023-05-22T03:24:23;99794.81;;;14.40;85.28
49102;BME280;34913;47.520;19.186;2023-05-22T03:26:49;99795.44;;;14.34;85.30
49102;BME280;34913;47.520;19.186;2023-05-22T03:29:14;99792.09;;;14.32;85.92
49102;BME280;34913;47.520;19.186;2023-05-22T03:31:40;99794.25;;;14.36;85.51
49102;BME280;34913;47.520;19.186;2023-05-22T03:34:05;99785.41;;;14.36;85.72
49102;BME280;34913;47.520;19.186;2023-05-22T03:36:31;99796.09;;;14.36;86.01
49102;BME280;34913;47.520;19.186;2023-05-22T03:39:01;99792.59;;;14.35;86.02
49102;BME280;34913;47.520;19.186;2023-05-22T03:41:27;99793.59;;;14.34;86.63
49102;BME280;34913;47.520;19.186;2023-05-22T03:43:52;99796.09;;;14.36;86.73
49102;BME280;34913;47.520;19.186;2023-05-22T03:46:18;99792.97;;;14.40;86.39
49102;BME280;34913;47.520;19.186;2023-05-22T03:48:44;99790.69;;;14.45;85.45
49102;BME280;34913;47.520;19.186;2023-05-22T03:51:09;99793.28;;;14.55;85.14
49102;BME280;34913;47.520;19.186;2023-05-22T03:53:35;99786.59;;;14.59;83.27
49102;BME280;34913;47.520;19.186;2023-05-22T03:56:00;99792.00;;;14.67;83.49
49102;BME280;34913;47.520;19.186;2023-05-22T03:58:25;99792.88;;;14.76;83.52
49102;BME280;34913;47.520;19.186;2023-05-22T04:00:54;99790.91;;;14.78;81.79
49102;BME280;34913;47.520;19.186;2023-05-22T04:03:23;99796.81;;;14.90;81.76
49102;BME280;34913;47.520;19.186;2023-05-22T04:05:48;99788.53;;;15.01;82.09
49102;BME280;34913;47.520;19.186;2023-05-22T04:08:15;99788.03;;;15.05;82.29
49102;BME280;34913;47.520;19.186;2023-05-22T04:10:41;99788.63;;;15.25;81.58
49102;BME280;34913;47.520;19.186;2023-05-22T04:13:06;99790.38;;;15.59;80.68
49102;BME280;34913;47.520;19.186;2023-05-22T04:15:32;99779.41;;;15.95;78.57
49102;BME280;34913;47.520;19.186;2023-05-22T04:17:58;99789.63;;;16.32;77.20
49102;BME280;34913;47.520;19.186;2023-05-22T04:20:24;99791.09;;;16.51;75.48
49102;BME280;34913;47.520;19.186;2023-05-22T04:22:50;99786.06;;;16.56;73.79
49102;BME280;34913;47.520;19.186;2023-05-22T04:25:16;99786.72;;;16.66;74.26
49102;BME280;34913;47.520;19.186;2023-05-22T04:27:41;99792.78;;;16.76;75.22
49102;BME280;34913;47.520;19.186;2023-05-22T04:30:07;99788.72;;;16.80;74.90
49102;BME280;34913;47.520;19.186;2023-05-22T04:32:34;99788.06;;;16.78;75.06
49102;BME280;34913;47.520;19.186;2023-05-22T04:35:01;99791.44;;;16.72;74.63
49102;BME280;34913;47.520;19.186;2023-05-22T04:37:26;99789.56;;;16.64;75.34
49102;BME280;34913;47.520;19.186;2023-05-22T04:39:53;99780.88;;;16.62;75.96
49102;BME280;34913;47.520;19.186;2023-05-22T04:42:22;99782.38;;;16.65;74.36
49102;BME280;34913;47.520;19.186;2023-05-22T04:44:50;99781.22;;;16.67;74.83
49102;BME280;34913;47.520;19.186;2023-05-22T04:47:17;99780.72;;;16.72;75.64
49102;BME280;34913;47.520;19.186;2023-05-22T04:49:43;99792.09;;;16.74;74.97
49102;BME280;34913;47.520;19.186;2023-05-22T04:52:10;99785.03;;;16.81;76.40
49102;BME280;34913;47.520;19.186;2023-05-22T04:54:36;99778.19;;;16.79;76.14
49102;BME280;34913;47.520;19.186;2023-05-22T04:57:02;99777.31;;;16.86;76.68
49102;BME280;34913;47.520;19.186;2023-05-22T04:59:30;99772.94;;;16.93;75.41
49102;BME280;34913;47.520;19.186;2023-05-22T05:01:55;99779.75;;;17.04;74.84
49102;BME280;34913;47.520;19.186;2023-05-22T05:04:21;99778.25;;;17.10;74.57
49102;BME280;34913;47.520;19.186;2023-05-22T05:06:46;99792.41;;;17.26;74.03
49102;BME280;34913;47.520;19.186;2023-05-22T05:09:12;99803.94;;;17.35;73.11
49102;BME280;34913;47.520;19.186;2023-05-22T05:11:37;99812.13;;;17.42;72.80
49102;BME280;34913;47.520;19.186;2023-05-22T05:14:03;99808.88;;;17.54;70.68
49102;BME280;34913;47.520;19.186;2023-05-22T05:16:28;99806.09;;;17.79;70.47
49102;BME280;34913;47.520;19.186;2023-05-22T05:18:54;99812.88;;;17.90;71.67
49102;BME280;34913;47.520;19.186;2023-05-22T05:21:19;99811.81;;;17.99;70.55
49102;BME280;34913;47.520;19.186;2023-05-22T05:23:46;99812.06;;;18.12;68.95
49102;BME280;34913;47.520;19.186;2023-05-22T05:26:11;99812.69;;;18.14;68.68
49102;BME280;34913;47.520;19.186;2023-05-22T05:28:37;99818.72;;;18.16;70.85
49102;BME280;34913;47.520;19.186;2023-05-22T05:31:02;99827.97;;;18.13;70.87
49102;BME280;34913;47.520;19.186;2023-05-22T05:33:28;99812.69;;;18.14;69.44
49102;BME280;34913;47.520;19.186;2023-05-22T05:35:53;99819.28;;;18.11;68.94
49102;BME280;34913;47.520;19.186;2023-05-22T05:38:19;99817.44;;;18.12;70.88
49102;BME280;34913;47.520;19.186;2023-05-22T05:40:45;99822.78;;;18.12;70.71
49102;BME280;34913;47.520;19.186;2023-05-22T05:43:11;99821.47;;;18.08;70.13
49102;BME280;34913;47.520;19.186;2023-05-22T05:45:43;99829.00;;;18.12;70.70
49102;BME280;34913;47.520;19.186;2023-05-22T05:48:08;99823.44;;;18.14;69.61
49102;BME280;34913;47.520;19.186;2023-05-22T05:50:34;99837.38;;;18.18;68.65
49102;BME280;34913;47.520;19.186;2023-05-22T05:53:00;99831.56;;;18.29;69.62
49102;BME280;34913;47.520;19.186;2023-05-22T05:55:26;99830.06;;;18.49;68.70
49102;BME280;34913;47.520;19.186;2023-05-22T05:57:52;99826.69;;;18.70;67.48
49102;BME280;34913;47.520;19.186;2023-05-22T06:00:17;99829.66;;;19.19;65.04
49102;BME280;34913;47.520;19.186;2023-05-22T06:02:43;99831.50;;;19.34;64.81
49102;BME280;34913;47.520;19.186;2023-05-22T06:05:10;99831.16;;;19.37;64.46
49102;BME280;34913;47.520;19.186;2023-05-22T06:07:35;99825.56;;;19.38;64.33
49102;BME280;34913;47.520;19.186;2023-05-22T06:10:08;99821.41;;;19.36;62.96
49102;BME280;34913;47.520;19.186;2023-05-22T06:12:35;99826.13;;;19.34;63.27
49102;BME280;34913;47.520;19.186;2023-05-22T06:15:02;99833.47;;;19.25;63.59
49102;BME280;34913;47.520;19.186;2023-05-22T06:17:29;99837.00;;;19.25;64.74
49102;BME280;34913;47.520;19.186;2023-05-22T06:19:54;99831.16;;;19.37;62.48
49102;BME280;34913;47.520;19.186;2023-05-22T06:22:19;99827.66;;;19.72;62.71
49102;BME280;34913;47.520;19.186;2023-05-22T06:24:45;99829.75;;;20.13;60.60
49102;BME280;34913;47.520;19.186;2023-05-22T06:27:10;99823.19;;;20.65;59.77
49102;BME280;34913;47.520;19.186;2023-05-22T06:29:36;99817.47;;;21.09;57.46
49102;BME280;34913;47.520;19.186;2023-05-22T06:32:01;99822.03;;;21.50;56.23
49102;BME280;34913;47.520;19.186;2023-05-22T06:34:27;99822.38;;;21.95;54.11
49102;BME280;34913;47.520;19.186;2023-05-22T06:36:53;99833.19;;;22.01;49.34
49102;BME280;34913;47.520;19.186;2023-05-22T06:39:20;99820.72;;;22.00;47.86
49102;BME280;34913;47.520;19.186;2023-05-22T06:41:45;99832.66;;;22.52;46.43
49102;BME280;34913;47.520;19.186;2023-05-22T06:44:11;99836.59;;;22.96;45.14
49102;BME280;34913;47.520;19.186;2023-05-22T06:46:37;99835.28;;;23.32;45.07
49102;BME280;34913;47.520;19.186;2023-05-22T06:49:02;99838.78;;;23.39;44.37
49102;BME280;34913;47.520;19.186;2023-05-22T06:51:28;99840.13;;;23.10;44.68
49102;BME280;34913;47.520;19.186;2023-05-22T06:53:53;99835.56;;;22.71;44.77
49102;BME280;34913;47.520;19.186;2023-05-22T06:56:19;99833.47;;;22.33;44.59
49102;BME280;34913;47.520;19.186;2023-05-22T06:58:44;99828.66;;;22.09;47.16
49102;BME280;34913;47.520;19.186;2023-05-22T07:01:10;99846.31;;;22.05;47.85
49102;BME280;34913;47.520;19.186;2023-05-22T07:03:36;99839.44;;;22.02;46.29
49102;BME280;34913;47.520;19.186;2023-05-22T07:06:01;99838.75;;;21.73;45.09
49102;BME280;34913;47.520;19.186;2023-05-22T07:08:27;99839.31;;;21.62;48.39
49102;BME280;34913;47.520;19.186;2023-05-22T07:10:52;99819.78;;;21.60;46.85
49102;BME280;34913;47.520;19.186;2023-05-22T07:13:18;99825.16;;;21.54;48.76
49102;BME280;34913;47.520;19.186;2023-05-22T07:15:44;99836.31;;;21.37;48.42
49102;BME280;34913;47.520;19.186;2023-05-22T07:18:10;99844.97;;;21.26;51.94
49102;BME280;34913;47.520;19.186;2023-05-22T07:20:36;99841.53;;;21.11;50.60
49102;BME280;34913;47.520;19.186;2023-05-22T07:23:02;99842.50;;;20.97;50.41
49102;BME280;34913;47.520;19.186;2023-05-22T07:25:27;99838.81;;;20.76;46.52
49102;BME280;34913;47.520;19.186;2023-05-22T07:27:53;99847.72;;;20.77;46.00
49102;BME280;34913;47.520;19.186;2023-05-22T07:30:20;99847.56;;;20.78;47.70
49102;BME280;34913;47.520;19.186;2023-05-22T07:32:46;99843.38;;;20.76;47.47
49102;BME280;34913;47.520;19.186;2023-05-22T07:35:12;99833.47;;;20.83;48.32
49102;BME280;34913;47.520;19.186;2023-05-22T07:37:37;99841.13;;;21.14;46.04
49102;BME280;34913;47.520;19.186;2023-05-22T07:40:03;99843.81;;;21.96;44.92
49102;BME280;34913;47.520;19.186;2023-05-22T07:42:31;99833.91;;;22.23;43.84
49102;BME280;34913;47.520;19.186;2023-05-22T07:44:56;99816.63;;;22.31;45.46
49102;BME280;34913;47.520;19.186;2023-05-22T07:47:21;99829.75;;;22.21;45.93
49102;BME280;34913;47.520;19.186;2023-05-22T07:49:47;99832.44;;;22.34;43.38
49102;BME280;34913;47.520;19.186;2023-05-22T07:52:12;99829.75;;;22.61;45.92
49102;BME280;34913;47.520;19.186;2023-05-22T07:54:38;99834.72;;;22.64;42.39
49102;BME280;34913;47.520;19.186;2023-05-22T07:57:03;99828.28;;;22.65;41.92
49102;BME280;34913;47.520;19.186;2023-05-22T07:59:28;99824.69;;;23.17;44.56
49102;BME280;34913;47.520;19.186;2023-05-22T08:01:54;99831.22;;;23.61;42.47
49102;BME280;34913;47.520;19.186;2023-05-22T08:04:19;99837.69;;;23.98;41.93
49102;BME280;34913;47.520;19.186;2023-05-22T08:06:45;99839.09;;;24.07;43.07
49102;BME280;34913;47.520;19.186;2023-05-22T08:09:10;99839.53;;;24.04;41.02
49102;BME280;34913;47.520;19.186;2023-05-22T08:11:36;99832.97;;;23.87;41.24
49102;BME280;34913;47.520;19.186;2023-05-22T08:14:04;99834.03;;;23.86;40.77
49102;BME280;34913;47.520;19.186;2023-05-22T08:16:30;99837.34;;;24.19;41.72
49102;BME280;34913;47.520;19.186;2023-05-22T08:18:56;99836.47;;;24.57;40.67
49102;BME280;34913;47.520;19.186;2023-05-22T08:21:21;99832.50;;;24.78;39.81
49102;BME280;34913;47.520;19.186;2023-05-22T08:23:47;99834.00;;;24.99;40.59
49102;BME280;34913;47.520;19.186;2023-05-22T08:26:13;99837.38;;;24.94;38.64
49102;BME280;34913;47.520;19.186;2023-05-22T08:28:45;99836.50;;;25.19;41.05
49102;BME280;34913;47.520;19.186;2023-05-22T08:31:11;99829.34;;;25.43;41.16
49102;BME280;34913;47.520;19.186;2023-05-22T08:33:36;99833.59;;;25.39;40.18
49102;BME280;34913;47.520;19.186;2023-05-22T08:36:02;99833.72;;;25.07;39.12
49102;BME280;34913;47.520;19.186;2023-05-22T08:38:27;99836.22;;;25.09;40.78
49102;BME280;34913;47.520;19.186;2023-05-22T08:40:53;99835.72;;;24.93;39.56
49102;BME280;34913;47.520;19.186;2023-05-22T08:43:22;99835.78;;;24.62;41.51
49102;BME280;34913;47.520;19.186;2023-05-22T08:46:06;99840.34;;;24.43;41.72
49102;BME280;34913;47.520;19.186;2023-05-22T08:48:33;99839.38;;;24.24;42.34
49102;BME280;34913;47.520;19.186;2023-05-22T08:51:03;99836.47;;;23.94;42.79
49102;BME280;34913;47.520;19.186;2023-05-22T08:53:34;99829.03;;;23.83;43.43
49102;BME280;34913;47.520;19.186;2023-05-22T08:56:01;99828.53;;;23.92;45.48
49102;BME280;34913;47.520;19.186;2023-05-22T08:58:28;99836.50;;;23.87;42.78
49102;BME280;34913;47.520;19.186;2023-05-22T09:00:53;99831.72;;;23.83;41.79
49102;BME280;34913;47.520;19.186;2023-05-22T09:03:20;99828.38;;;23.87;41.30
49102;BME280;34913;47.520;19.186;2023-05-22T09:05:47;99835.75;;;23.74;40.99
49102;BME280;34913;47.520;19.186;2023-05-22T09:08:13;99838.97;;;23.44;41.07
49102;BME280;34913;47.520;19.186;2023-05-22T09:10:40;99837.25;;;24.01;41.64
49102;BME280;34913;47.520;19.186;2023-05-22T09:13:06;99832.47;;;24.35;40.66
49102;BME280;34913;47.520;19.186;2023-05-22T09:15:34;99828.44;;;24.44;42.93
49102;BME280;34913;47.520;19.186;2023-05-22T09:18:01;99826.81;;;24.36;40.77
49102;BME280;34913;47.520;19.186;2023-05-22T09:20:26;99828.78;;;24.72;42.38
49102;BME280;34913;47.520;19.186;2023-05-22T09:22:52;99818.84;;;25.10;43.50
49102;BME280;34913;47.520;19.186;2023-05-22T09:25:18;99819.47;;;25.30;40.30
49102;BME280;34913;47.520;19.186;2023-05-22T09:27:45;99819.91;;;25.45;40.01
49102;BME280;34913;47.520;19.186;2023-05-22T09:30:11;99816.41;;;25.75;38.98
49102;BME280;34913;47.520;19.186;2023-05-22T09:32:40;99817.72;;;25.54;38.54
49102;BME280;34913;47.520;19.186;2023-05-22T09:35:05;99819.59;;;25.35;37.83
49102;BME280;34913;47.520;19.186;2023-05-22T09:37:35;99818.88;;;25.28;38.74
49102;BME280;34913;47.520;19.186;2023-05-22T09:40:05;99817.38;;;25.14;40.65
49102;BME280;34913;47.520;19.186;2023-05-22T09:42:34;99813.81;;;25.13;41.54
49102;BME280;34913;47.520;19.186;2023-05-22T09:45:04;99812.91;;;24.76;39.94
49102;BME280;34913;47.520;19.186;2023-05-22T09:47:29;99808.94;;;24.97;41.37
49102;BME280;34913;47.520;19.186;2023-05-22T09:49:56;99809.59;;;25.17;40.11
49102;BME280;34913;47.520;19.186;2023-05-22T09:52:23;99810.00;;;25.51;40.03
49102;BME280;34913;47.520;19.186;2023-05-22T09:54:52;99803.31;;;25.53;37.65
49102;BME280;34913;47.520;19.186;2023-05-22T09:57:21;99796.63;;;25.68;37.83
49102;BME280;34913;47.520;19.186;2023-05-22T09:59:50;99796.78;;;26.03;40.09
49102;BME280;34913;47.520;19.186;2023-05-22T10:02:23;99799.03;;;26.48;38.77
49102;BME280;34913;47.520;19.186;2023-05-22T10:04:49;99799.88;;;26.71;42.18
49102;BME280;34913;47.520;19.186;2023-05-22T10:07:23;99801.63;;;26.66;37.35
49102;BME280;34913;47.520;19.186;2023-05-22T10:09:57;99805.41;;;26.41;37.50
49102;BME280;34913;47.520;19.186;2023-05-22T10:12:24;99805.28;;;26.06;37.77
49102;BME280;34913;47.520;19.186;2023-05-22T10:14:52;99796.56;;;26.16;37.06
49102;BME280;34913;47.520;19.186;2023-05-22T10:17:18;99800.78;;;26.00;38.05
49102;BME280;34913;47.520;19.186;2023-05-22T10:19:45;99794.88;;;25.92;38.98
49102;BME280;34913;47.520;19.186;2023-05-22T10:22:12;99789.97;;;25.82;38.57
49102;BME280;34913;47.520;19.186;2023-05-22T10:24:45;99785.06;;;26.02;41.01
49102;BME280;34913;47.520;19.186;2023-05-22T10:27:12;99788.25;;;25.69;38.21
49102;BME280;34913;47.520;19.186;2023-05-22T10:29:44;99782.66;;;25.64;41.64
49102;BME280;34913;47.520;19.186;2023-05-22T10:38:23;99770.47;;;26.38;39.07
49102;BME280;34913;47.520;19.186;2023-05-22T10:40:51;99766.84;;;26.03;36.23
49102;BME280;34913;47.520;19.186;2023-05-22T10:43:17;99773.59;;;26.00;39.20
49102;BME280;34913;47.520;19.186;2023-05-22T10:45:45;99766.06;;;26.26;37.01
49102;BME280;34913;47.520;19.186;2023-05-22T10:48:11;99762.19;;;26.45;38.69
49102;BME280;34913;47.520;19.186;2023-05-22T10:50:37;99772.88;;;26.47;37.03
49102;BME280;34913;47.520;19.186;2023-05-22T10:55:56;99769.28;;;26.46;38.02
49102;BME280;34913;47.520;19.186;2023-05-22T10:58:28;99759.97;;;26.42;40.39
49102;BME280;34913;47.520;19.186;2023-05-22T11:01:14;99756.06;;;26.50;37.22
49102;BME280;34913;47.520;19.186;2023-05-22T11:06:44;99743.63;;;26.65;36.76
49102;BME280;34913;47.520;19.186;2023-05-22T11:09:29;99738.41;;;26.87;38.27
49102;BME280;34913;47.520;19.186;2023-05-22T11:12:18;99740.88;;;27.12;37.93
49102;BME280;34913;47.520;19.186;2023-05-22T11:14:56;99735.66;;;27.39;37.64
49102;BME280;34913;47.520;19.186;2023-05-22T11:17:26;99732.19;;;27.15;36.79
49102;BME280;34913;47.520;19.186;2023-05-22T11:22:58;99723.84;;;27.62;35.81
49102;BME280;34913;47.520;19.186;2023-05-22T11:25:25;99727.28;;;27.69;37.08
49102;BME280;34913;47.520;19.186;2023-05-22T11:27:52;99720.97;;;27.40;35.56
49102;BME280;34913;47.520;19.186;2023-05-22T11:30:19;99721.66;;;27.47;35.42
49102;BME280;34913;47.520;19.186;2023-05-22T11:32:45;99722.88;;;27.68;34.19
49102;BME280;34913;47.520;19.186;2023-05-22T11:35:19;99709.09;;;27.75;34.53
49102;BME280;34913;47.520;19.186;2023-05-22T11:37:46;99727.13;;;27.93;34.97
49102;BME280;34913;47.520;19.186;2023-05-22T11:40:14;99717.81;;;27.89;36.60
49102;BME280;34913;47.520;19.186;2023-05-22T11:42:40;99719.09;;;27.86;34.38
49102;BME280;34913;47.520;19.186;2023-05-22T11:45:06;99716.72;;;27.04;34.53
49102;BME280;34913;47.520;19.186;2023-05-22T11:47:31;99713.19;;;27.32;35.71
49102;BME280;34913;47.520;19.186;2023-05-22T11:49:57;99708.84;;;27.48;36.58
49102;BME280;34913;47.520;19.186;2023-05-22T11:52:24;99708.66;;;27.66;36.43
49102;BME280;34913;47.520;19.186;2023-05-22T11:54:52;99709.78;;;27.82;34.96
49102;BME280;34913;47.520;19.186;2023-05-22T11:57:18;99716.63;;;27.85;33.09
49102;BME280;34913;47.520;19.186;2023-05-22T11:59:47;99714.06;;;27.78;34.16
49102;BME280;34913;47.520;19.186;2023-05-22T12:02:13;99709.53;;;27.84;36.14
49102;BME280;34913;47.520;19.186;2023-05-22T12:04:39;99705.00;;;27.89;35.32
49102;BME280;34913;47.520;19.186;2023-05-22T12:07:06;99704.81;;;27.96;34.28
49102;BME280;34913;47.520;19.186;2023-05-22T12:09:32;99703.75;;;27.97;36.40
49102;BME280;34913;47.520;19.186;2023-05-22T12:11:58;99698.38;;;27.85;32.42
49102;BME280;34913;47.520;19.186;2023-05-22T12:14:28;99695.47;;;27.46;33.08
49102;BME280;34913;47.520;19.186;2023-05-22T12:16:57;99696.75;;;27.27;35.11
49102;BME280;34913;47.520;19.186;2023-05-22T12:19:24;99689.28;;;27.22;35.15
49102;BME280;34913;47.520;19.186;2023-05-22T12:21:49;99686.41;;;27.29;34.67
49102;BME280;34913;47.520;19.186;2023-05-22T12:24:15;99681.25;;;27.44;34.29
49102;BME280;34913;47.520;19.186;2023-05-22T12:26:52;99690.19;;;27.57;35.04
49102;BME280;34913;47.520;19.186;2023-05-22T12:29:21;99679.38;;;27.62;33.42
49102;BME280;34913;47.520;19.186;2023-05-22T12:31:47;99680.66;;;27.71;34.19
49102;BME280;34913;47.520;19.186;2023-05-22T12:34:14;99685.28;;;27.70;33.46
49102;BME280;34913;47.520;19.186;2023-05-22T12:36:42;99673.91;;;27.45;33.00
49102;BME280;34913;47.520;19.186;2023-05-22T12:39:09;99672.00;;;27.17;32.31
49102;BME280;34913;47.520;19.186;2023-05-22T12:41:38;99672.50;;;27.14;33.68
49102;BME280;34913;47.520;19.186;2023-05-22T12:44:03;99663.97;;;27.39;35.06
49102;BME280;34913;47.520;19.186;2023-05-22T12:46:32;99662.06;;;27.39;34.81
49102;BME280;34913;47.520;19.186;2023-05-22T12:49:01;99656.34;;;27.24;34.75
49102;BME280;34913;47.520;19.186;2023-05-22T12:51:29;99649.38;;;27.45;35.43
49102;BME280;34913;47.520;19.186;2023-05-22T12:53:59;99647.88;;;27.37;35.62
49102;BME280;34913;47.520;19.186;2023-05-22T12:56:25;99649.19;;;27.35;36.82
49102;BME280;34913;47.520;19.186;2023-05-22T12:58:51;99643.53;;;27.24;33.96
49102;BME280;34913;47.520;19.186;2023-05-22T13:01:16;99631.34;;;27.27;35.38
49102;BME280;34913;47.520;19.186;2023-05-22T13:03:42;99642.81;;;27.29;35.92
49102;BME280;34913;47.520;19.186;2023-05-22T13:06:08;99636.88;;;27.49;35.35
49102;BME280;34913;47.520;19.186;2023-05-22T13:08:33;99629.06;;;27.52;35.45
49102;BME280;34913;47.520;19.186;2023-05-22T13:10:59;99629.16;;;27.58;34.45
49102;BME280;34913;47.520;19.186;2023-05-22T13:13:25;99626.19;;;27.59;35.53
49102;BME280;34913;47.520;19.186;2023-05-22T13:15:51;99625.00;;;27.55;34.54
49102;BME280;34913;47.520;19.186;2023-05-22T13:18:16;99616.16;;;27.48;35.05